MV Grace — WDH5978 — position and weather

sailwx.info

Track history (hours):
 
Tides and Currents Weather Stations Pressure Air Temp Water Temp Dewpoint Dewpoint Depression Visibility Wind Speed Wind Dir Waves Ship Positions

MV Grace

Owner: MV Cajun 3, LLC, New Orleans, LA. More information available from US FCC via Universal Licensing System and Coast Guard Vessel Documentation Center.

Last reported at 2018-May-27 15:13 UTC. Time now 2018-May-28 00:58 UTC.
Position N 29°47' W 095°06'.

Length 207 m; draft 3 m.

Type: . MMSI: 367633410.

Date/timePositionNaut miles runAvg speedWind from/ knotsBaromVisibWave heightAir tempDewpointWater temp
2018-May-27 15:13N 29°47' W 095°06'0 0.0
2018-May-27 14:43N 29°47' W 095°06'0 0.0
2018-May-27 14:28N 29°47' W 095°06'0 0.0
2018-May-27 13:55N 29°47' W 095°06'0 0.0
2018-May-27 13:28N 29°47' W 095°06'0 0.0
2018-May-27 12:58N 29°47' W 095°06'0 0.0
2018-May-27 07:23N 29°47' W 095°06'0 0.2
2018-May-27 06:51N 29°47' W 095°06'1 0.0
2018-May-25 19:53N 29°46' W 095°05'0 0.1
2018-May-25 15:47N 29°46' W 095°05'1 4.0
2018-May-25 15:27N 29°45' W 095°04'2 4.2
2018-May-25 14:59N 29°44' W 095°02'0 0.9
2018-May-25 14:26N 29°44' W 095°01'0 0.2
2018-May-25 12:42N 29°44' W 095°01'0 1.5
2018-May-25 12:28N 29°44' W 095°01'0 0.0
2018-May-25 11:59N 29°44' W 095°01'0 0.0
2018-May-25 11:30N 29°44' W 095°01'4 3.4
2018-May-25 10:19N 29°46' W 095°05'2 6.6
2018-May-25 09:59N 29°44' W 095°04'2 4.1
2018-May-25 09:30N 29°44' W 095°01'0 0.0
2018-May-25 08:59N 29°44' W 095°01'0 0.0
2018-May-25 08:30N 29°44' W 095°01'0 0.0
2018-May-25 07:57N 29°44' W 095°01'0 0.0
2018-May-25 07:30N 29°44' W 095°01'0 0.0
2018-May-25 07:00N 29°44' W 095°01'0 0.0
2018-May-25 06:30N 29°44' W 095°01'0 0.0
2018-May-25 06:00N 29°44' W 095°01'0 0.0
2018-May-25 05:30N 29°44' W 095°01'0 0.0
2018-May-25 05:00N 29°44' W 095°01'0 0.0
2018-May-25 04:30N 29°44' W 095°01'0 0.0
2018-May-25 04:00N 29°44' W 095°01'0 0.0
2018-May-25 03:30N 29°44' W 095°01'0 0.0
2018-May-25 03:00N 29°44' W 095°01'0 0.0
2018-May-25 02:30N 29°44' W 095°01'0 0.0
2018-May-25 02:00N 29°44' W 095°01'0 0.0
2018-May-25 01:27N 29°44' W 095°01'0 0.0
2018-May-25 01:00N 29°44' W 095°01'0 0.0
2018-May-25 00:30N 29°44' W 095°01'0 0.0
2018-May-24 23:56N 29°44' W 095°01'0 0.0
2018-May-24 23:30N 29°44' W 095°01'0 0.0
2018-May-24 22:39N 29°44' W 095°01'0 0.0
2018-May-24 21:50N 29°44' W 095°01'0 0.0
2018-May-24 21:30N 29°44' W 095°01'0 0.0
2018-May-24 21:00N 29°44' W 095°01'0 0.0
2018-May-24 20:29N 29°44' W 095°01'0 0.0
2018-May-24 19:57N 29°44' W 095°01'0 0.0
2018-May-24 19:30N 29°44' W 095°01'0 0.2
2018-May-24 18:59N 29°44' W 095°01'0 0.1
2018-May-24 18:29N 29°44' W 095°01'0 0.1
2018-May-24 17:53N 29°44' W 095°01'0 0.3
2018-May-24 17:15N 29°44' W 095°01'0 0.2
2018-May-24 16:13N 29°44' W 095°01'0 0.0
2018-May-24 15:51N 29°44' W 095°01'0 0.0
2018-May-24 15:28N 29°44' W 095°01'0 0.0
2018-May-24 14:57N 29°44' W 095°01'0 0.0
2018-May-24 14:30N 29°44' W 095°01'0 0.0
2018-May-24 13:59N 29°44' W 095°01'0 0.0
2018-May-24 13:29N 29°44' W 095°01'0 0.0
2018-May-24 08:54N 29°44' W 095°01'0 0.0
2018-May-24 08:30N 29°44' W 095°01'0 0.0
2018-May-24 07:59N 29°44' W 095°01'0 0.0
2018-May-24 07:26N 29°44' W 095°01'0 0.0
2018-May-24 04:16N 29°44' W 095°01'0 0.0
2018-May-24 03:54N 29°44' W 095°01'0 0.0
2018-May-24 03:30N 29°44' W 095°01'0 0.0
2018-May-24 02:53N 29°44' W 095°01'0 0.2
2018-May-24 01:41N 29°44' W 095°01'0 0.0
2018-May-24 01:26N 29°44' W 095°01'3 4.1
2018-May-24 00:46N 29°45' W 095°04'2 4.7
2018-May-24 00:23N 29°47' W 095°05'1 1.0
2018-May-23 23:42N 29°47' W 095°04'2 2.6
2018-May-23 22:55N 29°46' W 095°06'0 0.0
2018-May-23 22:30N 29°46' W 095°06'0 0.0
2018-May-23 21:45N 29°46' W 095°06'0 0.0
2018-May-23 21:30N 29°46' W 095°06'0 0.0
2018-May-23 20:56N 29°46' W 095°06'0 0.0
2018-May-23 20:29N 29°46' W 095°06'0 0.0
2018-May-23 20:00N 29°46' W 095°06'0 0.0
2018-May-23 19:23N 29°46' W 095°06'0 0.1
2018-May-23 15:24N 29°46' W 095°05'1 0.1
2018-May-23 09:37N 29°46' W 095°04'1 0.3
2018-May-23 06:04N 29°46' W 095°06'0 0.0
2018-May-23 05:53N 29°46' W 095°06'0 0.0
2018-May-23 05:15N 29°46' W 095°06'1 0.1
2018-May-22 14:39N 29°46' W 095°05'1 5.5
2018-May-22 14:30N 29°46' W 095°06'0 0.0
2018-May-22 14:00N 29°46' W 095°06'0 0.0
2018-May-22 13:20N 29°46' W 095°06'0 0.0
2018-May-22 12:58N 29°46' W 095°06'0 0.0
2018-May-22 04:02N 29°46' W 095°06'0 0.0
2018-May-21 03:50N 29°46' W 095°06'0 0.0
2018-May-21 03:30N 29°46' W 095°06'3 0.4
2018-May-20 19:03N 29°44' W 095°09'2 4.9
2018-May-20 18:43N 29°45' W 095°10'1 0.0
2018-May-19 23:50N 29°45' W 095°11'1 3.5
2018-May-19 23:28N 29°45' W 095°10'2 3.4
2018-May-19 22:58N 29°44' W 095°08'2 4.4
2018-May-19 22:24N 29°45' W 095°06'1 0.1
2018-May-19 13:02N 29°46' W 095°05'0 6.8
2018-May-19 13:00N 29°46' W 095°04'1 0.1
2018-May-19 02:29N 29°47' W 095°04'0 0.3
2018-May-19 01:53N 29°47' W 095°04'0 0.1
2018-May-19 01:28N 29°47' W 095°04'2 0.1
2018-May-18 10:27N 29°46' W 095°06'0 0.0
2018-May-18 10:00N 29°46' W 095°06'0 0.0
2018-May-18 09:30N 29°46' W 095°06'0 0.0
2018-May-18 08:33N 29°46' W 095°06'0 0.0
2018-May-18 08:30N 29°46' W 095°06'0 0.0
2018-May-18 08:00N 29°46' W 095°06'0 0.0
2018-May-18 07:30N 29°46' W 095°06'0 0.0
2018-May-18 07:00N 29°46' W 095°06'0 0.0
2018-May-18 06:30N 29°46' W 095°06'0 0.0
2018-May-18 06:00N 29°46' W 095°06'0 0.0
2018-May-18 05:30N 29°46' W 095°06'0 0.0
2018-May-18 04:51N 29°46' W 095°06'0 0.0
2018-May-18 04:30N 29°46' W 095°06'0 0.0
2018-May-18 03:54N 29°46' W 095°06'0 0.0
2018-May-18 03:30N 29°46' W 095°06'0 0.0
2018-May-18 03:00N 29°46' W 095°06'0 0.0
2018-May-18 02:21N 29°46' W 095°06'  
Track history (hours):
 
Tides and Currents Weather Stations Pressure Air Temp Water Temp Dewpoint Dewpoint Depression Visibility Wind Speed Wind Dir Waves Ship Positions

MV Grace

Owner: MV Cajun 3, LLC, New Orleans, LA. More information available from US FCC via Universal Licensing System and Coast Guard Vessel Documentation Center.

Last reported at 2018-May-27 15:13 UTC. Time now 2018-May-28 00:58 UTC.
Position N 29°47' W 095°06'.

Length 207 m; draft 3 m.

Type: . MMSI: 367633410.

Date/timePositionNaut miles runAvg speedWind from/ knotsBaromVisibWave heightAir tempDewpointWater temp
2018-May-27 15:13N 29°47' W 095°06'0 0.0
2018-May-27 14:43N 29°47' W 095°06'0 0.0
2018-May-27 14:28N 29°47' W 095°06'0 0.0
2018-May-27 13:55N 29°47' W 095°06'0 0.0
2018-May-27 13:28N 29°47' W 095°06'0 0.0
2018-May-27 12:58N 29°47' W 095°06'0 0.0
2018-May-27 07:23N 29°47' W 095°06'0 0.2
2018-May-27 06:51N 29°47' W 095°06'1 0.0
2018-May-25 19:53N 29°46' W 095°05'0 0.1
2018-May-25 15:47N 29°46' W 095°05'1 4.0
2018-May-25 15:27N 29°45' W 095°04'2 4.2
2018-May-25 14:59N 29°44' W 095°02'0 0.9
2018-May-25 14:26N 29°44' W 095°01'0 0.2
2018-May-25 12:42N 29°44' W 095°01'0 1.5
2018-May-25 12:28N 29°44' W 095°01'0 0.0
2018-May-25 11:59N 29°44' W 095°01'0 0.0
2018-May-25 11:30N 29°44' W 095°01'4 3.4
2018-May-25 10:19N 29°46' W 095°05'2 6.6
2018-May-25 09:59N 29°44' W 095°04'2 4.1
2018-May-25 09:30N 29°44' W 095°01'0 0.0
2018-May-25 08:59N 29°44' W 095°01'0 0.0
2018-May-25 08:30N 29°44' W 095°01'0 0.0
2018-May-25 07:57N 29°44' W 095°01'0 0.0
2018-May-25 07:30N 29°44' W 095°01'0 0.0
2018-May-25 07:00N 29°44' W 095°01'0 0.0
2018-May-25 06:30N 29°44' W 095°01'0 0.0
2018-May-25 06:00N 29°44' W 095°01'0 0.0
2018-May-25 05:30N 29°44' W 095°01'0 0.0
2018-May-25 05:00N 29°44' W 095°01'0 0.0
2018-May-25 04:30N 29°44' W 095°01'0 0.0
2018-May-25 04:00N 29°44' W 095°01'0 0.0
2018-May-25 03:30N 29°44' W 095°01'0 0.0
2018-May-25 03:00N 29°44' W 095°01'0 0.0
2018-May-25 02:30N 29°44' W 095°01'0 0.0
2018-May-25 02:00N 29°44' W 095°01'0 0.0
2018-May-25 01:27N 29°44' W 095°01'0 0.0
2018-May-25 01:00N 29°44' W 095°01'0 0.0
2018-May-25 00:30N 29°44' W 095°01'0 0.0
2018-May-24 23:56N 29°44' W 095°01'0 0.0
2018-May-24 23:30N 29°44' W 095°01'0 0.0
2018-May-24 22:39N 29°44' W 095°01'0 0.0
2018-May-24 21:50N 29°44' W 095°01'0 0.0
2018-May-24 21:30N 29°44' W 095°01'0 0.0
2018-May-24 21:00N 29°44' W 095°01'0 0.0
2018-May-24 20:29N 29°44' W 095°01'0 0.0
2018-May-24 19:57N 29°44' W 095°01'0 0.0
2018-May-24 19:30N 29°44' W 095°01'0 0.2
2018-May-24 18:59N 29°44' W 095°01'0 0.1
2018-May-24 18:29N 29°44' W 095°01'0 0.1
2018-May-24 17:53N 29°44' W 095°01'0 0.3
2018-May-24 17:15N 29°44' W 095°01'0 0.2
2018-May-24 16:13N 29°44' W 095°01'0 0.0
2018-May-24 15:51N 29°44' W 095°01'0 0.0
2018-May-24 15:28N 29°44' W 095°01'0 0.0
2018-May-24 14:57N 29°44' W 095°01'0 0.0
2018-May-24 14:30N 29°44' W 095°01'0 0.0
2018-May-24 13:59N 29°44' W 095°01'0 0.0
2018-May-24 13:29N 29°44' W 095°01'0 0.0
2018-May-24 08:54N 29°44' W 095°01'0 0.0
2018-May-24 08:30N 29°44' W 095°01'0 0.0
2018-May-24 07:59N 29°44' W 095°01'0 0.0
2018-May-24 07:26N 29°44' W 095°01'0 0.0
2018-May-24 04:16N 29°44' W 095°01'0 0.0
2018-May-24 03:54N 29°44' W 095°01'0 0.0
2018-May-24 03:30N 29°44' W 095°01'0 0.0
2018-May-24 02:53N 29°44' W 095°01'0 0.2
2018-May-24 01:41N 29°44' W 095°01'0 0.0
2018-May-24 01:26N 29°44' W 095°01'3 4.1
2018-May-24 00:46N 29°45' W 095°04'2 4.7
2018-May-24 00:23N 29°47' W 095°05'1 1.0
2018-May-23 23:42N 29°47' W 095°04'2 2.6
2018-May-23 22:55N 29°46' W 095°06'0 0.0
2018-May-23 22:30N 29°46' W 095°06'0 0.0
2018-May-23 21:45N 29°46' W 095°06'0 0.0
2018-May-23 21:30N 29°46' W 095°06'0 0.0
2018-May-23 20:56N 29°46' W 095°06'0 0.0
2018-May-23 20:29N 29°46' W 095°06'0 0.0
2018-May-23 20:00N 29°46' W 095°06'0 0.0
2018-May-23 19:23N 29°46' W 095°06'0 0.1
2018-May-23 15:24N 29°46' W 095°05'1 0.1
2018-May-23 09:37N 29°46' W 095°04'1 0.3
2018-May-23 06:04N 29°46' W 095°06'0 0.0
2018-May-23 05:53N 29°46' W 095°06'0 0.0
2018-May-23 05:15N 29°46' W 095°06'1 0.1
2018-May-22 14:39N 29°46' W 095°05'1 5.5
2018-May-22 14:30N 29°46' W 095°06'0 0.0
2018-May-22 14:00N 29°46' W 095°06'0 0.0
2018-May-22 13:20N 29°46' W 095°06'0 0.0
2018-May-22 12:58N 29°46' W 095°06'0 0.0
2018-May-22 04:02N 29°46' W 095°06'0 0.0
2018-May-21 03:50N 29°46' W 095°06'0 0.0
2018-May-21 03:30N 29°46' W 095°06'3 0.4
2018-May-20 19:03N 29°44' W 095°09'2 4.9
2018-May-20 18:43N 29°45' W 095°10'1 0.0
2018-May-19 23:50N 29°45' W 095°11'1 3.5
2018-May-19 23:28N 29°45' W 095°10'2 3.4
2018-May-19 22:58N 29°44' W 095°08'2 4.4
2018-May-19 22:24N 29°45' W 095°06'1 0.1
2018-May-19 13:02N 29°46' W 095°05'0 6.8
2018-May-19 13:00N 29°46' W 095°04'1 0.1
2018-May-19 02:29N 29°47' W 095°04'0 0.3
2018-May-19 01:53N 29°47' W 095°04'0 0.1
2018-May-19 01:28N 29°47' W 095°04'2 0.1
2018-May-18 10:27N 29°46' W 095°06'0 0.0
2018-May-18 10:00N 29°46' W 095°06'0 0.0
2018-May-18 09:30N 29°46' W 095°06'0 0.0
2018-May-18 08:33N 29°46' W 095°06'0 0.0
2018-May-18 08:30N 29°46' W 095°06'0 0.0
2018-May-18 08:00N 29°46' W 095°06'0 0.0
2018-May-18 07:30N 29°46' W 095°06'0 0.0
2018-May-18 07:00N 29°46' W 095°06'0 0.0
2018-May-18 06:30N 29°46' W 095°06'0 0.0
2018-May-18 06:00N 29°46' W 095°06'0 0.0
2018-May-18 05:30N 29°46' W 095°06'0 0.0
2018-May-18 04:51N 29°46' W 095°06'0 0.0
2018-May-18 04:30N 29°46' W 095°06'0 0.0
2018-May-18 03:54N 29°46' W 095°06'0 0.0
2018-May-18 03:30N 29°46' W 095°06'0 0.0
2018-May-18 03:00N 29°46' W 095°06'0 0.0
2018-May-18 02:21N 29°46' W 095°06'  

Dump ship's entire track history